sensor_id;sensor_type;location;lat;lon;timestamp;pressure;altitude;pressure_sealevel;temperature;humidity
55418;BME280;41287;47.554;7.844;2023-03-19T00:01:58;97788.56;;;17.53;54.66
55418;BME280;41287;47.554;7.844;2023-03-19T00:04:26;97791.28;;;17.53;54.68
55418;BME280;41287;47.554;7.844;2023-03-19T00:06:51;97795.91;;;17.52;54.60
55418;BME280;41287;47.554;7.844;2023-03-19T00:09:17;97803.22;;;17.52;54.71
55418;BME280;41287;47.554;7.844;2023-03-19T00:11:43;97800.53;;;17.52;54.74
55418;BME280;41287;47.554;7.844;2023-03-19T00:14:08;97802.44;;;17.51;54.53
55418;BME280;41287;47.554;7.844;2023-03-19T00:16:34;97805.94;;;17.52;54.81
55418;BME280;41287;47.554;7.844;2023-03-19T00:19:00;97805.16;;;17.51;54.54
55418;BME280;41287;47.554;7.844;2023-03-19T00:21:26;97804.34;;;17.51;54.73
55418;BME280;41287;47.554;7.844;2023-03-19T00:23:52;97809.78;;;17.51;54.67
55418;BME280;41287;47.554;7.844;2023-03-19T00:26:18;97809.78;;;17.51;54.81
55418;BME280;41287;47.554;7.844;2023-03-19T00:28:45;97813.59;;;17.50;54.91
55418;BME280;41287;47.554;7.844;2023-03-19T00:31:14;97812.47;;;17.51;55.09
55418;BME280;41287;47.554;7.844;2023-03-19T00:33:41;97815.19;;;17.51;54.77
55418;BME280;41287;47.554;7.844;2023-03-19T00:36:07;97819.50;;;17.52;54.92
55418;BME280;41287;47.554;7.844;2023-03-19T00:38:33;97827.94;;;17.50;54.83
55418;BME280;41287;47.554;7.844;2023-03-19T00:41:00;97834.16;;;17.51;54.74
55418;BME280;41287;47.554;7.844;2023-03-19T00:43:25;97824.44;;;17.50;54.84
55418;BME280;41287;47.554;7.844;2023-03-19T00:45:51;97834.47;;;17.49;54.82
55418;BME280;41287;47.554;7.844;2023-03-19T00:48:17;97832.56;;;17.50;54.82
55418;BME280;41287;47.554;7.844;2023-03-19T00:50:42;97837.97;;;17.50;54.89
55418;BME280;41287;47.554;7.844;2023-03-19T00:53:08;97835.28;;;17.50;54.78
55418;BME280;41287;47.554;7.844;2023-03-19T00:55:33;97836.38;;;17.49;54.89
55418;BME280;41287;47.554;7.844;2023-03-19T00:57:59;97835.28;;;17.50;54.96
55418;BME280;41287;47.554;7.844;2023-03-19T01:00:25;97839.09;;;17.49;54.93
55418;BME280;41287;47.554;7.844;2023-03-19T01:02:52;97834.47;;;17.49;54.86
55418;BME280;41287;47.554;7.844;2023-03-19T01:05:19;97823.63;;;17.49;54.93
55418;BME280;41287;47.554;7.844;2023-03-19T01:07:45;97833.69;;;17.49;54.98
55418;BME280;41287;47.554;7.844;2023-03-19T01:10:10;97843.41;;;17.50;54.92
55418;BME280;41287;47.554;7.844;2023-03-19T01:12:36;97837.50;;;17.48;54.91
55418;BME280;41287;47.554;7.844;2023-03-19T01:15:04;97837.50;;;17.48;55.00
55418;BME280;41287;47.554;7.844;2023-03-19T01:17:31;97846.44;;;17.48;54.76
55418;BME280;41287;47.554;7.844;2023-03-19T01:19:56;97847.22;;;17.49;55.05
55418;BME280;41287;47.554;7.844;2023-03-19T01:22:21;97848.34;;;17.48;54.93
55418;BME280;41287;47.554;7.844;2023-03-19T01:24:47;97848.34;;;17.48;54.88
55418;BME280;41287;47.554;7.844;2023-03-19T01:27:12;97851.84;;;17.48;54.99
55418;BME280;41287;47.554;7.844;2023-03-19T01:29:38;97845.63;;;17.48;55.00
55418;BME280;41287;47.554;7.844;2023-03-19T01:32:03;97848.34;;;17.48;54.94
55418;BME280;41287;47.554;7.844;2023-03-19T01:34:29;97845.63;;;17.48;54.91
55418;BME280;41287;47.554;7.844;2023-03-19T01:36:55;97836.72;;;17.47;55.06
55418;BME280;41287;47.554;7.844;2023-03-19T01:39:22;97839.41;;;17.47;55.04
55418;BME280;41287;47.554;7.844;2023-03-19T01:41:47;97835.59;;;17.48;55.09
55418;BME280;41287;47.554;7.844;2023-03-19T01:44:30;97834.38;;;17.46;55.20
55418;BME280;41287;47.554;7.844;2023-03-19T01:46:56;97839.41;;;17.47;55.13
55418;BME280;41287;47.554;7.844;2023-03-19T01:49:24;97836.72;;;17.47;55.18
55418;BME280;41287;47.554;7.844;2023-03-19T01:51:52;97837.88;;;17.46;55.07
55418;BME280;41287;47.554;7.844;2023-03-19T01:54:20;97837.88;;;17.46;55.10
55418;BME280;41287;47.554;7.844;2023-03-19T01:56:51;97847.13;;;17.45;55.13
55418;BME280;41287;47.554;7.844;2023-03-19T01:59:29;97841.69;;;17.45;55.15
55418;BME280;41287;47.554;7.844;2023-03-19T02:02:03;97847.91;;;17.46;55.09
55418;BME280;41287;47.554;7.844;2023-03-19T02:04:31;97843.28;;;17.46;55.17
55418;BME280;41287;47.554;7.844;2023-03-19T02:07:00;97845.19;;;17.46;55.20
55418;BME280;41287;47.554;7.844;2023-03-19T02:09:28;97847.13;;;17.45;55.22
55418;BME280;41287;47.554;7.844;2023-03-19T02:11:55;97846.78;;;17.47;55.24
55418;BME280;41287;47.554;7.844;2023-03-19T02:14:20;97846.00;;;17.46;55.15
55418;BME280;41287;47.554;7.844;2023-03-19T02:16:46;97843.28;;;17.46;54.98
55418;BME280;41287;47.554;7.844;2023-03-19T02:19:19;97830.84;;;17.45;55.19
55418;BME280;41287;47.554;7.844;2023-03-19T02:21:46;97827.34;;;17.45;55.16
55418;BME280;41287;47.554;7.844;2023-03-19T02:24:16;97837.41;;;17.44;55.18
55418;BME280;41287;47.554;7.844;2023-03-19T02:26:44;97840.91;;;17.45;55.26
55418;BME280;41287;47.554;7.844;2023-03-19T02:29:11;97844.41;;;17.45;55.25
55418;BME280;41287;47.554;7.844;2023-03-19T02:31:36;97834.69;;;17.44;55.18
55418;BME280;41287;47.554;7.844;2023-03-19T02:34:04;97838.97;;;17.45;55.25
55418;BME280;41287;47.554;7.844;2023-03-19T02:36:40;97831.97;;;17.44;55.24
55418;BME280;41287;47.554;7.844;2023-03-19T02:39:17;97834.69;;;17.44;55.17
55418;BME280;41287;47.554;7.844;2023-03-19T02:41:45;97840.09;;;17.44;55.19
55418;BME280;41287;47.554;7.844;2023-03-19T02:44:12;97840.09;;;17.44;55.26
55418;BME280;41287;47.554;7.844;2023-03-19T02:46:37;97832.78;;;17.45;55.23
55418;BME280;41287;47.554;7.844;2023-03-19T02:49:03;97833.88;;;17.44;55.24
55418;BME280;41287;47.554;7.844;2023-03-19T02:51:31;97842.81;;;17.44;55.10
55418;BME280;41287;47.554;7.844;2023-03-19T02:53:56;97832.78;;;17.45;55.18
55418;BME280;41287;47.554;7.844;2023-03-19T02:56:24;97831.19;;;17.44;55.26
55418;BME280;41287;47.554;7.844;2023-03-19T02:58:50;97832.78;;;17.45;55.12
55418;BME280;41287;47.554;7.844;2023-03-19T03:01:15;97826.56;;;17.44;55.38
55418;BME280;41287;47.554;7.844;2023-03-19T03:03:41;97813.34;;;17.43;55.40
55418;BME280;41287;47.554;7.844;2023-03-19T03:06:06;97822.25;;;17.43;55.56
55418;BME280;41287;47.554;7.844;2023-03-19T03:08:34;97814.94;;;17.44;55.24
55418;BME280;41287;47.554;7.844;2023-03-19T03:11:00;97825.75;;;17.44;55.20
55418;BME280;41287;47.554;7.844;2023-03-19T03:13:26;97826.56;;;17.44;55.21
55418;BME280;41287;47.554;7.844;2023-03-19T03:15:52;97830.38;;;17.43;55.32
55418;BME280;41287;47.554;7.844;2023-03-19T03:18:17;97830.38;;;17.43;55.39
55418;BME280;41287;47.554;7.844;2023-03-19T03:20:43;97842.00;;;17.44;55.19
55418;BME280;41287;47.554;7.844;2023-03-19T03:23:09;97840.44;;;17.43;55.36
55418;BME280;41287;47.554;7.844;2023-03-19T03:25:35;97838.50;;;17.43;55.39
55418;BME280;41287;47.554;7.844;2023-03-19T03:28:00;97840.44;;;17.43;55.39
55418;BME280;41287;47.554;7.844;2023-03-19T03:30:26;97849.34;;;17.43;55.37
55418;BME280;41287;47.554;7.844;2023-03-19T03:32:52;97850.16;;;17.44;55.46
55418;BME280;41287;47.554;7.844;2023-03-19T03:35:17;97847.44;;;17.44;55.47
55418;BME280;41287;47.554;7.844;2023-03-19T03:37:47;97840.44;;;17.43;55.39
55418;BME280;41287;47.554;7.844;2023-03-19T03:40:13;97846.63;;;17.43;55.46
55418;BME280;41287;47.554;7.844;2023-03-19T03:42:42;97853.97;;;17.43;55.36
55418;BME280;41287;47.554;7.844;2023-03-19T03:45:08;97851.59;;;17.41;55.48
55418;BME280;41287;47.554;7.844;2023-03-19T03:47:35;97848.56;;;17.43;55.41
55418;BME280;41287;47.554;7.844;2023-03-19T03:50:00;97848.56;;;17.43;55.32
55418;BME280;41287;47.554;7.844;2023-03-19T03:52:26;97853.19;;;17.42;55.42
55418;BME280;41287;47.554;7.844;2023-03-19T03:54:57;97862.41;;;17.41;55.44
55418;BME280;41287;47.554;7.844;2023-03-19T03:57:23;97864.81;;;17.43;55.38
55418;BME280;41287;47.554;7.844;2023-03-19T03:59:50;97869.44;;;17.42;55.49
55418;BME280;41287;47.554;7.844;2023-03-19T04:02:15;97872.94;;;17.43;55.50
55418;BME280;41287;47.554;7.844;2023-03-19T04:04:41;97878.34;;;17.43;55.53
55418;BME280;41287;47.554;7.844;2023-03-19T04:07:07;97890.28;;;17.42;55.58
55418;BME280;41287;47.554;7.844;2023-03-19T04:09:33;97885.69;;;17.42;55.65
55418;BME280;41287;47.554;7.844;2023-03-19T04:11:58;97887.59;;;17.42;56.04
55418;BME280;41287;47.554;7.844;2023-03-19T04:14:26;97877.56;;;17.42;55.87
55418;BME280;41287;47.554;7.844;2023-03-19T04:16:52;97869.75;;;17.41;55.72
55418;BME280;41287;47.554;7.844;2023-03-19T04:19:17;97874.03;;;17.42;55.79
55418;BME280;41287;47.554;7.844;2023-03-19T04:21:43;97886.78;;;17.41;55.74
55418;BME280;41287;47.554;7.844;2023-03-19T04:24:09;97888.72;;;17.41;55.71
55418;BME280;41287;47.554;7.844;2023-03-19T04:26:36;97892.22;;;17.41;55.60
55418;BME280;41287;47.554;7.844;2023-03-19T04:29:02;97894.91;;;17.41;55.58
55418;BME280;41287;47.554;7.844;2023-03-19T04:31:27;97898.75;;;17.40;55.64
55418;BME280;41287;47.554;7.844;2023-03-19T04:33:53;97882.50;;;17.40;55.56
55418;BME280;41287;47.554;7.844;2023-03-19T04:36:18;97886.78;;;17.41;55.60
55418;BME280;41287;47.554;7.844;2023-03-19T04:38:44;97888.72;;;17.41;55.59
55418;BME280;41287;47.554;7.844;2023-03-19T04:41:09;97895.28;;;17.40;55.74
55418;BME280;41287;47.554;7.844;2023-03-19T04:43:38;97891.78;;;17.39;55.71
55418;BME280;41287;47.554;7.844;2023-03-19T04:46:04;97899.53;;;17.41;55.59
55418;BME280;41287;47.554;7.844;2023-03-19T04:48:32;97896.03;;;17.40;55.58
55418;BME280;41287;47.554;7.844;2023-03-19T04:51:02;97904.97;;;17.41;55.45
55418;BME280;41287;47.554;7.844;2023-03-19T04:53:28;97910.38;;;17.41;55.51
55418;BME280;41287;47.554;7.844;2023-03-19T04:55:56;97905.75;;;17.41;56.01
55418;BME280;41287;47.554;7.844;2023-03-19T04:58:22;97900.69;;;17.40;55.79
55418;BME280;41287;47.554;7.844;2023-03-19T05:00:47;97899.91;;;17.39;55.90
55418;BME280;41287;47.554;7.844;2023-03-19T05:03:14;97897.63;;;17.41;55.89
55418;BME280;41287;47.554;7.844;2023-03-19T05:05:40;97895.28;;;17.40;55.82
55418;BME280;41287;47.554;7.844;2023-03-19T05:08:06;97887.16;;;17.40;55.76
55418;BME280;41287;47.554;7.844;2023-03-19T05:10:33;97898.75;;;17.40;55.75
55418;BME280;41287;47.554;7.844;2023-03-19T05:12:58;97891.78;;;17.39;55.80
55418;BME280;41287;47.554;7.844;2023-03-19T05:15:24;97903.41;;;17.40;55.76
55418;BME280;41287;47.554;7.844;2023-03-19T05:17:49;97899.91;;;17.39;55.75
55418;BME280;41287;47.554;7.844;2023-03-19T05:20:15;97905.31;;;17.39;55.64
55418;BME280;41287;47.554;7.844;2023-03-19T05:22:40;97897.97;;;17.40;55.82
55418;BME280;41287;47.554;7.844;2023-03-19T05:25:07;97899.53;;;17.41;55.63
55418;BME280;41287;47.554;7.844;2023-03-19T05:27:34;97901.81;;;17.38;55.79
55418;BME280;41287;47.554;7.844;2023-03-19T05:30:00;97905.31;;;17.39;55.88
55418;BME280;41287;47.554;7.844;2023-03-19T05:32:26;97897.19;;;17.39;55.81
55418;BME280;41287;47.554;7.844;2023-03-19T05:34:51;97905.31;;;17.39;55.75
55418;BME280;41287;47.554;7.844;2023-03-19T05:37:17;97904.53;;;17.38;55.82
55418;BME280;41287;47.554;7.844;2023-03-19T05:39:42;97905.31;;;17.39;55.77
55418;BME280;41287;47.554;7.844;2023-03-19T05:42:08;97909.94;;;17.38;55.77
55418;BME280;41287;47.554;7.844;2023-03-19T05:44:33;97904.53;;;17.38;55.79
55418;BME280;41287;47.554;7.844;2023-03-19T05:46:58;97903.72;;;17.38;55.81
55418;BME280;41287;47.554;7.844;2023-03-19T05:49:24;97903.72;;;17.38;55.74
55418;BME280;41287;47.554;7.844;2023-03-19T05:51:50;97906.44;;;17.38;55.67
55418;BME280;41287;47.554;7.844;2023-03-19T05:54:15;97901.81;;;17.38;55.83
55418;BME280;41287;47.554;7.844;2023-03-19T05:56:41;97906.44;;;17.38;55.70
55418;BME280;41287;47.554;7.844;2023-03-19T05:59:08;97898.31;;;17.38;55.72
55418;BME280;41287;47.554;7.844;2023-03-19T06:01:35;97904.84;;;17.37;55.33
55418;BME280;41287;47.554;7.844;2023-03-19T06:04:01;97902.94;;;17.37;55.85
55418;BME280;41287;47.554;7.844;2023-03-19T06:06:26;97912.16;;;17.36;55.89
55418;BME280;41287;47.554;7.844;2023-03-19T06:08:51;97918.38;;;17.37;55.89
55418;BME280;41287;47.554;7.844;2023-03-19T06:11:17;97919.19;;;17.37;55.83
55418;BME280;41287;47.554;7.844;2023-03-19T06:13:43;97919.19;;;17.37;55.76
55418;BME280;41287;47.554;7.844;2023-03-19T06:16:08;97923.78;;;17.37;55.82
55418;BME280;41287;47.554;7.844;2023-03-19T06:18:34;97920.28;;;17.36;55.77
55418;BME280;41287;47.554;7.844;2023-03-19T06:21:02;97922.69;;;17.38;55.76
55418;BME280;41287;47.554;7.844;2023-03-19T06:23:28;97920.28;;;17.36;55.81
55418;BME280;41287;47.554;7.844;2023-03-19T06:25:54;97917.59;;;17.36;55.83
55418;BME280;41287;47.554;7.844;2023-03-19T06:28:19;97921.09;;;17.37;55.83
55418;BME280;41287;47.554;7.844;2023-03-19T06:30:46;97933.84;;;17.36;55.90
55418;BME280;41287;47.554;7.844;2023-03-19T06:33:12;97937.34;;;17.37;55.81
55418;BME280;41287;47.554;7.844;2023-03-19T06:35:38;97939.25;;;17.36;55.77
55418;BME280;41287;47.554;7.844;2023-03-19T06:38:04;97933.84;;;17.36;55.81
55418;BME280;41287;47.554;7.844;2023-03-19T06:40:29;97933.84;;;17.36;55.94
55418;BME280;41287;47.554;7.844;2023-03-19T06:42:55;97941.16;;;17.36;55.75
55418;BME280;41287;47.554;7.844;2023-03-19T06:45:20;97935.75;;;17.36;55.93
55418;BME280;41287;47.554;7.844;2023-03-19T06:47:46;97938.47;;;17.36;55.92
55418;BME280;41287;47.554;7.844;2023-03-19T06:50:13;97941.16;;;17.36;55.93
55418;BME280;41287;47.554;7.844;2023-03-19T06:52:40;97940.38;;;17.35;55.87
55418;BME280;41287;47.554;7.844;2023-03-19T06:55:06;97940.38;;;17.35;55.90
55418;BME280;41287;47.554;7.844;2023-03-19T06:57:32;97954.72;;;17.36;55.86
55418;BME280;41287;47.554;7.844;2023-03-19T06:59:58;97947.38;;;17.36;55.92
55418;BME280;41287;47.554;7.844;2023-03-19T07:02:23;97947.69;;;17.35;55.89
55418;BME280;41287;47.554;7.844;2023-03-19T07:04:50;97946.91;;;17.34;55.68
55418;BME280;41287;47.554;7.844;2023-03-19T07:07:17;97945.78;;;17.35;55.86
55418;BME280;41287;47.554;7.844;2023-03-19T07:09:43;97953.91;;;17.35;55.94
55418;BME280;41287;47.554;7.844;2023-03-19T07:12:08;97945.00;;;17.35;55.74
55418;BME280;41287;47.554;7.844;2023-03-19T07:14:34;97953.13;;;17.35;55.96
55418;BME280;41287;47.554;7.844;2023-03-19T07:17:00;97952.31;;;17.34;55.80
55418;BME280;41287;47.554;7.844;2023-03-19T07:19:25;97964.75;;;17.35;55.87
55418;BME280;41287;47.554;7.844;2023-03-19T07:21:50;97961.25;;;17.35;55.86
55418;BME280;41287;47.554;7.844;2023-03-19T07:24:16;97966.66;;;17.35;55.93
55418;BME280;41287;47.554;7.844;2023-03-19T07:26:41;97968.56;;;17.34;55.72
55418;BME280;41287;47.554;7.844;2023-03-19T07:29:09;97969.38;;;17.35;55.83
55418;BME280;41287;47.554;7.844;2023-03-19T07:31:36;97967.78;;;17.34;55.98
55418;BME280;41287;47.554;7.844;2023-03-19T07:34:02;97978.28;;;17.35;56.10
55418;BME280;41287;47.554;7.844;2023-03-19T07:36:27;97973.34;;;17.37;56.32
55418;BME280;41287;47.554;7.844;2023-03-19T07:38:52;97969.00;;;17.45;56.64
55418;BME280;41287;47.554;7.844;2023-03-19T07:41:18;97971.50;;;17.50;56.77
55418;BME280;41287;47.554;7.844;2023-03-19T07:43:43;97974.03;;;17.55;57.29
55418;BME280;41287;47.554;7.844;2023-03-19T07:46:08;97985.47;;;17.61;58.08
55418;BME280;41287;47.554;7.844;2023-03-19T07:48:34;97982.59;;;17.66;58.85
55418;BME280;41287;47.554;7.844;2023-03-19T07:51:00;97992.44;;;17.70;60.22
55418;BME280;41287;47.554;7.844;2023-03-19T07:53:25;97995.31;;;17.74;60.93
55418;BME280;41287;47.554;7.844;2023-03-19T07:55:51;97996.22;;;17.78;61.67
55418;BME280;41287;47.554;7.844;2023-03-19T07:58:17;97992.84;;;17.81;62.62
55418;BME280;41287;47.554;7.844;2023-03-19T08:00:43;97994.91;;;17.84;63.20
55418;BME280;41287;47.554;7.844;2023-03-19T08:03:11;97992.66;;;17.86;63.83
55418;BME280;41287;47.554;7.844;2023-03-19T08:05:38;97995.47;;;17.90;64.89
55418;BME280;41287;47.554;7.844;2023-03-19T08:08:03;97995.16;;;17.91;65.20
55418;BME280;41287;47.554;7.844;2023-03-19T08:10:29;97997.22;;;17.94;66.11
55418;BME280;41287;47.554;7.844;2023-03-19T08:12:54;97993.72;;;17.94;65.26
55418;BME280;41287;47.554;7.844;2023-03-19T08:15:20;97988.94;;;17.91;62.58
55418;BME280;41287;47.554;7.844;2023-03-19T08:17:45;97995.69;;;17.85;61.04
55418;BME280;41287;47.554;7.844;2023-03-19T08:20:13;97996.34;;;17.82;60.79
55418;BME280;41287;47.554;7.844;2023-03-19T08:22:40;97999.41;;;17.80;60.67
55418;BME280;41287;47.554;7.844;2023-03-19T08:25:10;97994.63;;;17.77;60.91
55418;BME280;41287;47.554;7.844;2023-03-19T08:27:35;97994.16;;;17.75;60.84
55418;BME280;41287;47.554;7.844;2023-03-19T08:30:05;97993.72;;;17.73;60.64
55418;BME280;41287;47.554;7.844;2023-03-19T08:32:31;97994.03;;;17.71;60.54
55418;BME280;41287;47.554;7.844;2023-03-19T08:34:56;97995.94;;;17.71;60.16
55418;BME280;41287;47.554;7.844;2023-03-19T08:37:22;97995.47;;;17.69;60.21
55418;BME280;41287;47.554;7.844;2023-03-19T08:39:49;97996.59;;;17.68;59.88
55418;BME280;41287;47.554;7.844;2023-03-19T08:42:15;97989.25;;;17.68;59.95
55418;BME280;41287;47.554;7.844;2023-03-19T08:44:40;97990.72;;;17.66;59.76
55418;BME280;41287;47.554;7.844;2023-03-19T08:47:06;97985.63;;;17.64;59.96
55418;BME280;41287;47.554;7.844;2023-03-19T08:49:31;97996.16;;;17.66;59.59
55418;BME280;41287;47.554;7.844;2023-03-19T08:51:56;98001.09;;;17.64;59.55
55418;BME280;41287;47.554;7.844;2023-03-19T08:54:22;97996.78;;;17.63;59.38
55418;BME280;41287;47.554;7.844;2023-03-19T08:56:49;97996.00;;;17.62;59.31
55418;BME280;41287;47.554;7.844;2023-03-19T08:59:15;97998.69;;;17.62;59.37
55418;BME280;41287;47.554;7.844;2023-03-19T09:01:40;97995.53;;;17.60;59.28
55418;BME280;41287;47.554;7.844;2023-03-19T09:04:07;97999.81;;;17.61;59.14
55418;BME280;41287;47.554;7.844;2023-03-19T09:06:33;98004.44;;;17.61;59.42
55418;BME280;41287;47.554;7.844;2023-03-19T09:08:58;98000.94;;;17.60;59.11
55418;BME280;41287;47.554;7.844;2023-03-19T09:11:24;98005.56;;;17.60;59.10
55418;BME280;41287;47.554;7.844;2023-03-19T09:13:49;98004.78;;;17.59;58.91
55418;BME280;41287;47.554;7.844;2023-03-19T09:16:15;98008.59;;;17.58;59.02
55418;BME280;41287;47.554;7.844;2023-03-19T09:18:40;98014.00;;;17.58;58.83
55418;BME280;41287;47.554;7.844;2023-03-19T09:21:05;98014.00;;;17.58;58.81
55418;BME280;41287;47.554;7.844;2023-03-19T09:23:31;98011.63;;;17.57;58.89
55418;BME280;41287;47.554;7.844;2023-03-19T09:25:56;98008.13;;;17.56;58.54
55418;BME280;41287;47.554;7.844;2023-03-19T09:28:22;98008.13;;;17.56;58.60
55418;BME280;41287;47.554;7.844;2023-03-19T09:30:49;98006.53;;;17.55;58.50
55418;BME280;41287;47.554;7.844;2023-03-19T09:33:16;98011.94;;;17.55;58.72
55418;BME280;41287;47.554;7.844;2023-03-19T09:35:42;98006.53;;;17.55;58.61
55418;BME280;41287;47.554;7.844;2023-03-19T09:38:08;98013.84;;;17.55;58.41
55418;BME280;41287;47.554;7.844;2023-03-19T09:40:46;98006.84;;;17.54;58.62
55418;BME280;41287;47.554;7.844;2023-03-19T09:43:35;98008.00;;;17.53;58.57
55418;BME280;41287;47.554;7.844;2023-03-19T09:46:11;98008.00;;;17.53;58.27
55418;BME280;41287;47.554;7.844;2023-03-19T09:49:02;98005.28;;;17.53;58.57
55418;BME280;41287;47.554;7.844;2023-03-19T09:51:43;98003.38;;;17.53;58.39
55418;BME280;41287;47.554;7.844;2023-03-19T09:54:34;97994.78;;;17.51;58.28
55418;BME280;41287;47.554;7.844;2023-03-19T09:57:03;97995.56;;;17.52;58.25
55418;BME280;41287;47.554;7.844;2023-03-19T09:59:29;98003.38;;;17.53;58.28
55418;BME280;41287;47.554;7.844;2023-03-19T10:07:47;97989.34;;;17.51;58.18
55418;BME280;41287;47.554;7.844;2023-03-19T10:10:48;97994.28;;;17.49;58.21
55418;BME280;41287;47.554;7.844;2023-03-19T10:15:52;97989.69;;;17.50;58.27
55418;BME280;41287;47.554;7.844;2023-03-19T10:18:21;97991.59;;;17.49;58.14
55418;BME280;41287;47.554;7.844;2023-03-19T10:26:01;97987.28;;;17.48;57.97
55418;BME280;41287;47.554;7.844;2023-03-19T10:28:28;97982.22;;;17.47;58.21
55418;BME280;41287;47.554;7.844;2023-03-19T10:33:31;97977.56;;;17.47;58.01
55418;BME280;41287;47.554;7.844;2023-03-19T10:36:08;97985.69;;;17.47;58.24
55418;BME280;41287;47.554;7.844;2023-03-19T10:38:39;97976.00;;;17.46;58.09
55418;BME280;41287;47.554;7.844;2023-03-19T10:44:05;97986.06;;;17.46;58.08
55418;BME280;41287;47.554;7.844;2023-03-19T10:46:38;97983.00;;;17.47;58.11
55418;BME280;41287;47.554;7.844;2023-03-19T10:49:04;97984.13;;;17.46;58.03
55418;BME280;41287;47.554;7.844;2023-03-19T10:51:29;97976.00;;;17.46;57.89
55418;BME280;41287;47.554;7.844;2023-03-19T10:53:59;97977.13;;;17.45;57.99
55418;BME280;41287;47.554;7.844;2023-03-19T10:56:27;97978.72;;;17.46;57.94
55418;BME280;41287;47.554;7.844;2023-03-19T10:59:01;97976.81;;;17.47;58.04
55418;BME280;41287;47.554;7.844;2023-03-19T11:01:47;97970.91;;;17.45;57.98
55418;BME280;41287;47.554;7.844;2023-03-19T11:04:16;97973.63;;;17.45;58.13
55418;BME280;41287;47.554;7.844;2023-03-19T11:06:48;97976.31;;;17.45;58.21
55418;BME280;41287;47.554;7.844;2023-03-19T11:09:18;97972.03;;;17.44;58.16
55418;BME280;41287;47.554;7.844;2023-03-19T11:11:48;97966.28;;;17.45;58.01
55418;BME280;41287;47.554;7.844;2023-03-19T11:14:20;97968.22;;;17.45;57.92
55418;BME280;41287;47.554;7.844;2023-03-19T11:16:54;97962.78;;;17.45;58.02
55418;BME280;41287;47.554;7.844;2023-03-19T11:19:24;97960.06;;;17.45;57.80
55418;BME280;41287;47.554;7.844;2023-03-19T11:22:16;97960.41;;;17.43;58.01
55418;BME280;41287;47.554;7.844;2023-03-19T11:24:50;97957.69;;;17.43;58.01
55418;BME280;41287;47.554;7.844;2023-03-19T11:27:16;97963.91;;;17.44;57.96
55418;BME280;41287;47.554;7.844;2023-03-19T11:29:43;97958.47;;;17.44;57.99
55418;BME280;41287;47.554;7.844;2023-03-19T11:32:30;97961.84;;;17.41;57.99
55418;BME280;41287;47.554;7.844;2023-03-19T11:35:09;97959.59;;;17.43;58.04
55418;BME280;41287;47.554;7.844;2023-03-19T11:37:53;97957.22;;;17.41;57.94
55418;BME280;41287;47.554;7.844;2023-03-19T11:40:42;97947.50;;;17.40;57.98
55418;BME280;41287;47.554;7.844;2023-03-19T11:49:39;97948.28;;;17.41;58.05
55418;BME280;41287;47.554;7.844;2023-03-19T11:52:22;97949.09;;;17.41;58.01
55418;BME280;41287;47.554;7.844;2023-03-19T11:55:10;97941.75;;;17.42;58.03
55418;BME280;41287;47.554;7.844;2023-03-19T12:00:29;97946.72;;;17.40;57.98
55418;BME280;41287;47.554;7.844;2023-03-19T12:03:14;97941.31;;;17.40;58.07
55418;BME280;41287;47.554;7.844;2023-03-19T12:06:15;97938.94;;;17.38;57.85
55418;BME280;41287;47.554;7.844;2023-03-19T12:11:56;97933.19;;;17.40;57.90
55418;BME280;41287;47.554;7.844;2023-03-19T12:14:29;97936.66;;;17.40;57.89
55418;BME280;41287;47.554;7.844;2023-03-19T12:17:11;97932.41;;;17.39;57.95
55418;BME280;41287;47.554;7.844;2023-03-19T12:26:05;97934.63;;;17.37;58.07
55418;BME280;41287;47.554;7.844;2023-03-19T12:28:53;97940.03;;;17.37;57.93
55418;BME280;41287;47.554;7.844;2023-03-19T12:34:37;97930.34;;;17.36;57.94
55418;BME280;41287;47.554;7.844;2023-03-19T12:39:51;97928.41;;;17.36;57.87
55418;BME280;41287;47.554;7.844;2023-03-19T12:42:20;97926.50;;;17.37;57.92
55418;BME280;41287;47.554;7.844;2023-03-19T12:44:50;97929.22;;;17.37;57.92
55418;BME280;41287;47.554;7.844;2023-03-19T12:47:21;97923.00;;;17.36;57.88
55418;BME280;41287;47.554;7.844;2023-03-19T12:49:56;97931.94;;;17.37;57.89
55418;BME280;41287;47.554;7.844;2023-03-19T12:52:24;97926.50;;;17.37;58.04
55418;BME280;41287;47.554;7.844;2023-03-19T12:57:41;97923.31;;;17.35;58.05
55418;BME280;41287;47.554;7.844;2023-03-19T13:00:29;97926.81;;;17.35;57.83
55418;BME280;41287;47.554;7.844;2023-03-19T13:11:32;97927.94;;;17.34;58.05
55418;BME280;41287;47.554;7.844;2023-03-19T13:14:00;97918.72;;;17.35;57.95
55418;BME280;41287;47.554;7.844;2023-03-19T13:21:46;97924.13;;;17.35;57.83
55418;BME280;41287;47.554;7.844;2023-03-19T13:24:30;97923.66;;;17.33;58.02
55418;BME280;41287;47.554;7.844;2023-03-19T13:26:59;97919.81;;;17.34;57.68
55418;BME280;41287;47.554;7.844;2023-03-19T13:29:32;97923.66;;;17.33;57.90
55418;BME280;41287;47.554;7.844;2023-03-19T13:32:05;97932.25;;;17.35;57.94
55418;BME280;41287;47.554;7.844;2023-03-19T13:34:33;97927.94;;;17.34;57.88
55418;BME280;41287;47.554;7.844;2023-03-19T13:37:00;97929.53;;;17.35;57.87
55418;BME280;41287;47.554;7.844;2023-03-19T13:39:31;97930.66;;;17.34;57.90
55418;BME280;41287;47.554;7.844;2023-03-19T13:55:33;97940.25;;;17.32;57.84
55418;BME280;41287;47.554;7.844;2023-03-19T14:03:18;97944.53;;;17.33;57.80
55418;BME280;41287;47.554;7.844;2023-03-19T14:05:46;97946.09;;;17.34;57.77
55418;BME280;41287;47.554;7.844;2023-03-19T14:08:20;97937.53;;;17.32;57.84
55418;BME280;41287;47.554;7.844;2023-03-19T14:10:48;97943.75;;;17.32;57.89
55418;BME280;41287;47.554;7.844;2023-03-19T14:13:31;97937.06;;;17.30;57.82
55418;BME280;41287;47.554;7.844;2023-03-19T14:16:08;97947.56;;;17.31;57.53
55418;BME280;41287;47.554;7.844;2023-03-19T14:18:39;97934.84;;;17.32;57.55
55418;BME280;41287;47.554;7.844;2023-03-19T14:21:10;97942.97;;;17.32;57.47
55418;BME280;41287;47.554;7.844;2023-03-19T14:23:39;97933.25;;;17.31;57.26
55418;BME280;41287;47.554;7.844;2023-03-19T14:26:22;97936.28;;;17.29;57.25